Time;durP1;ratioP1;P1;durP2;ratioP2;P2;SDS_P1;SDS_P2;PMS_P1;PMS_P2;Temp;Humidity;BMP_temperature;BMP_pressure;BME280_temperature;BME280_humidity;BME280_pressure;Samples;Min_cycle;Max_cycle;Signal;HPM_P1;HPM_P2
2021/03/13 00:01:54;;;;;;;;;;;10.60;99.90;;;10.11;92.51;101581.31;5072945;28;19929;-63
2021/03/13 00:04:22;;;;;;;;;;;10.50;99.90;;;10.05;93.04;101580.50;5073288;28;20370;-63
2021/03/13 00:06:49;;;;;;;;;;;10.50;99.90;;;10.01;93.37;101578.59;5072134;28;20287;-63
2021/03/13 00:09:18;;;;;;;;;;;10.40;99.90;;;9.94;93.82;101578.84;5073055;28;19931;-63
2021/03/13 00:11:45;;;;;;;;;;;10.40;99.90;;;9.86;94.15;101572.09;5072888;28;20049;-63
2021/03/13 00:14:12;;;;;;;;;;;10.30;99.90;;;9.80;94.59;101575.84;5073049;28;19928;-63
2021/03/13 00:16:39;;;;;;;;;;;10.20;99.90;;;9.72;95.24;101581.78;5072353;28;19970;-63
2021/03/13 00:19:07;;;;;;;;;;;10.10;99.90;;;9.65;96.08;101580.41;5072595;28;19951;-63
2021/03/13 00:21:34;;;;;;;;;;;10.10;99.90;;;9.62;96.83;101573.63;5071831;28;19925;-63
2021/03/13 00:24:01;;;;;;;;;;;10.00;99.90;;;9.60;96.13;101572.28;5072822;28;19924;-63
2021/03/13 00:26:29;;;;;;;;;;;10.00;99.90;;;9.54;96.69;101571.47;5072416;28;19924;-63
2021/03/13 00:28:57;;;;;;;;;;;10.00;99.90;;;9.51;96.88;101565.78;5072049;28;19928;-63
2021/03/13 00:31:24;;;;;;;;;;;9.90;99.90;;;9.41;96.56;101558.44;5072166;28;19935;-63
2021/03/13 00:33:51;;;;;;;;;;;;;;;9.39;97.07;101555.22;5072961;28;19928;-63
2021/03/13 00:36:18;;;;;;;;;;;9.80;99.90;;;9.32;96.14;101555.44;5072428;28;19929;-63
2021/03/13 00:38:46;;;;;;;;;;;9.80;99.90;;;9.20;96.15;101551.34;5071996;28;19986;-63
2021/03/13 00:41:13;;;;;;;;;;;9.60;99.90;;;9.03;95.65;101556.06;5072663;28;19924;-63
2021/03/13 00:43:41;;;;;;;;;;;9.50;99.90;;;8.89;95.60;101550.34;5072675;28;19947;-63
2021/03/13 00:46:08;;;;;;;;;;;9.20;99.90;;;8.75;96.54;101555.38;5072011;28;19982;-63
2021/03/13 00:48:36;;;;;;;;;;;9.20;99.90;;;8.63;96.40;101556.66;5071348;28;20027;-63
2021/03/13 00:51:03;;;;;;;;;;;9.10;99.90;;;8.62;97.28;101555.84;5072150;28;19924;-63
2021/03/13 00:53:31;;;;;;;;;;;9.00;99.90;;;8.50;95.97;101557.91;5072481;28;19955;-63
2021/03/13 00:55:58;;;;;;;;;;;8.90;99.90;;;8.38;97.67;101567.22;5072351;28;20596;-63
2021/03/13 00:58:25;;;;;;;;;;;8.80;99.90;;;8.37;98.05;101568.28;5071381;28;19987;-63
2021/03/13 01:00:53;;;;;;;;;;;8.80;99.90;;;8.31;98.00;101574.72;5072234;28;19924;-63
2021/03/13 01:03:20;;;;;;;;;;;8.70;99.90;;;8.16;97.80;101568.09;5072576;28;19929;-63
2021/03/13 01:05:48;;;;;;;;;;;8.60;99.90;;;8.08;98.18;101575.81;5072524;28;20312;-63
2021/03/13 01:08:15;;;;;;;;;;;8.50;99.90;;;8.02;98.65;101571.47;5071586;28;20348;-63
2021/03/13 01:10:43;;;;;;;;;;;8.50;99.90;;;7.93;99.40;101565.72;5072118;28;19929;-63
2021/03/13 01:13:10;;;;;;;;;;;8.40;99.90;;;7.86;100.00;101569.66;5072418;28;19935;-63
2021/03/13 01:15:37;;;;;;;;;;;8.40;99.90;;;7.78;100.00;101576.34;5072277;28;19928;-63
2021/03/13 01:18:06;;;;;;;;;;;8.30;99.90;;;7.75;100.00;101566.06;5071297;28;19928;-63
2021/03/13 01:20:33;;;;;;;;;;;8.20;99.90;;;7.67;100.00;101571.88;5071930;28;19928;-63
2021/03/13 01:23:00;;;;;;;;;;;8.20;99.90;;;7.56;100.00;101572.84;5072594;28;20390;-63
2021/03/13 01:25:28;;;;;;;;;;;8.10;99.90;;;7.51;100.00;101570.06;5072559;28;19924;-63
2021/03/13 01:27:55;;;;;;;;;;;8.00;99.90;;;7.34;100.00;101572.84;5071452;28;19924;-63
2021/03/13 01:30:24;;;;;;;;;;;7.90;99.90;;;7.18;100.00;101575.56;5073499;28;19951;-63
2021/03/13 01:32:51;;;;;;;;;;;7.80;99.90;;;6.98;100.00;101574.25;5075616;28;19924;-63
2021/03/13 01:35:20;;;;;;;;;;;7.60;99.90;;;6.97;100.00;101561.84;5076640;28;19931;-62
2021/03/13 01:37:48;;;;;;;;;;;7.60;99.90;;;7.02;100.00;101564.59;5075444;28;19924;-63
2021/03/13 01:40:16;;;;;;;;;;;7.60;99.90;;;7.12;100.00;101563.91;5076415;28;19924;-63
2021/03/13 01:42:44;;;;;;;;;;;7.70;99.90;;;7.14;100.00;101567.97;5076782;28;19933;-63
2021/03/13 01:45:14;;;;;;;;;;;7.70;99.90;;;7.20;100.00;101579.66;5076104;28;19981;-63
2021/03/13 01:47:42;;;;;;;;;;;7.80;99.90;;;7.29;100.00;101572.78;5076307;28;19939;-63
2021/03/13 01:50:11;;;;;;;;;;;7.90;99.90;;;7.32;100.00;101572.28;5075973;28;20424;-63
2021/03/13 01:52:39;;;;;;;;;;;7.90;99.90;;;7.27;100.00;101577.56;5076425;28;19956;-63
2021/03/13 01:55:08;;;;;;;;;;;7.90;99.90;;;7.22;100.00;101568.63;5076164;28;20250;-62
2021/03/13 01:57:37;;;;;;;;;;;7.80;99.90;;;7.19;100.00;101571.81;5075077;28;19928;-63
2021/03/13 02:00:06;;;;;;;;;;;7.80;99.90;;;7.13;100.00;101573.63;5077165;28;19935;-62
2021/03/13 02:02:35;;;;;;;;;;;7.70;99.90;;;7.06;100.00;101571.13;5077180;28;20370;-63
2021/03/13 02:05:03;;;;;;;;;;;7.60;99.90;;;7.09;100.00;101556.34;5075490;28;20282;-63
2021/03/13 02:07:37;;;;;;;;;;;7.70;99.90;;;7.18;100.00;101568.31;5075661;28;20301;-63
2021/03/13 02:10:10;;;;;;;;;;;7.70;99.90;;;7.20;100.00;101570.75;5076097;28;19925;-63
2021/03/13 02:12:48;;;;;;;;;;;7.70;99.90;;;7.17;100.00;101579.34;5076192;28;20370;-63
2021/03/13 02:15:20;;;;;;;;;;;7.70;99.90;;;7.24;100.00;101575.38;5075990;28;19954;-63
2021/03/13 02:17:55;;;;;;;;;;;7.80;99.90;;;7.30;100.00;101577.06;5074492;28;20424;-63
2021/03/13 02:21:03;;;;;;;;;;;7.90;99.90;;;7.31;100.00;101583.28;5075293;28;19928;-63
2021/03/13 02:23:32;;;;;;;;;;;7.90;99.90;;;7.19;100.00;101578.00;5036367;28;19970;-63
2021/03/13 02:26:21;;;;;;;;;;;7.80;99.90;;;7.13;100.00;101582.50;5075376;28;19929;-63
2021/03/13 02:28:56;;;;;;;;;;;7.70;99.90;;;7.06;100.00;101581.06;5075214;28;19924;-62
2021/03/13 02:31:25;;;;;;;;;;;7.70;99.90;;;6.94;100.00;101572.28;5075388;28;20419;-63
2021/03/13 02:33:54;;;;;;;;;;;7.60;99.90;;;6.84;100.00;101567.56;5075078;28;19924;-63
2021/03/13 02:36:22;;;;;;;;;;;7.50;99.90;;;6.90;100.00;101553.13;5075589;28;19925;-63
2021/03/13 02:38:53;;;;;;;;;;;7.50;99.90;;;6.97;100.00;101563.72;5074470;28;19966;-63
2021/03/13 02:41:25;;;;;;;;;;;7.50;99.90;;;6.91;100.00;101556.63;5075501;28;19932;-63
2021/03/13 02:43:56;;;;;;;;;;;7.50;99.90;;;6.95;100.00;101561.28;5074989;28;19978;-63
2021/03/13 02:46:25;;;;;;;;;;;7.50;99.90;;;6.99;100.00;101554.34;5074607;28;19967;-63
2021/03/13 02:48:54;;;;;;;;;;;7.50;99.90;;;7.07;100.00;101555.78;5074083;28;19931;-63
2021/03/13 02:51:26;;;;;;;;;;;7.60;99.90;;;7.11;100.00;101559.63;5074707;28;19924;-64
2021/03/13 02:53:54;;;;;;;;;;;7.60;99.90;;;7.19;100.00;101555.69;5075064;28;19932;-63
2021/03/13 02:56:22;;;;;;;;;;;7.70;99.90;;;7.13;100.00;101560.19;5074966;28;20301;-63
2021/03/13 02:58:52;;;;;;;;;;;7.60;99.90;;;6.92;100.00;101547.53;5074993;28;19924;-63
2021/03/13 03:01:21;;;;;;;;;;;7.30;99.90;;;6.81;100.00;101543.84;5075700;28;20468;-62
2021/03/13 03:03:50;;;;;;;;;;;7.20;99.90;;;6.72;100.00;101536.50;5075634;28;19928;-62
2021/03/13 03:06:17;;;;;;;;;;;7.10;99.90;;;6.68;100.00;101530.78;5075323;28;19925;-63
2021/03/13 03:08:45;;;;;;;;;;;7.10;99.90;;;6.65;100.00;101528.59;5074026;28;19932;-63
2021/03/13 03:11:13;;;;;;;;;;;7.00;99.90;;;6.59;100.00;101525.03;5074315;28;20392;-63
2021/03/13 03:13:41;;;;;;;;;;;7.00;99.90;;;6.48;100.00;101528.59;5074775;28;19932;-63
2021/03/13 03:16:09;;;;;;;;;;;6.90;99.90;;;6.51;100.00;101527.28;5074854;28;19978;-63
2021/03/13 03:18:36;;;;;;;;;;;6.90;99.90;;;6.49;100.00;101535.59;5075144;28;19932;-63
2021/03/13 03:21:06;;;;;;;;;;;6.90;99.90;;;6.44;100.00;101524.75;5075272;28;20370;-63
2021/03/13 03:23:34;;;;;;;;;;;6.80;99.90;;;6.42;100.00;101536.81;5074268;28;19936;-63
2021/03/13 03:26:01;;;;;;;;;;;6.80;99.90;;;6.41;100.00;101533.31;5073865;28;19935;-63
2021/03/13 03:28:28;;;;;;;;;;;6.80;99.90;;;6.59;100.00;101519.66;5072775;28;19931;-63
2021/03/13 03:30:56;;;;;;;;;;;7.00;99.90;;;6.74;100.00;101529.81;5073896;28;19929;-63
2021/03/13 03:33:23;;;;;;;;;;;7.20;99.90;;;6.89;100.00;101529.19;5073696;28;19936;-63
2021/03/13 03:35:51;;;;;;;;;;;7.40;99.90;;;6.94;100.00;101521.19;5073945;28;19928;-63
2021/03/13 03:38:19;;;;;;;;;;;7.50;99.90;;;6.97;100.00;101523.38;5072777;28;19931;-63
2021/03/13 03:40:47;;;;;;;;;;;7.50;99.90;;;6.93;100.00;101515.00;5073232;28;19977;-63
2021/03/13 03:43:20;;;;;;;;;;;7.50;99.90;;;6.86;100.00;101509.00;5073696;28;19924;-63
2021/03/13 03:45:52;;;;;;;;;;;7.50;99.90;;;6.82;100.00;101507.88;5073440;28;20365;-63
2021/03/13 03:48:21;;;;;;;;;;;7.40;99.90;;;6.85;100.00;101517.31;5072916;28;19925;-63
2021/03/13 03:50:49;;;;;;;;;;;7.40;99.90;;;6.83;100.00;101514.06;5073085;28;19977;-63
2021/03/13 03:53:19;;;;;;;;;;;7.40;99.90;;;6.89;100.00;101500.44;5073447;28;19929;-63
2021/03/13 03:55:49;;;;;;;;;;;7.50;99.90;;;6.94;100.00;101508.56;5072056;28;20293;-63
2021/03/13 03:58:21;;;;;;;;;;;7.50;99.90;;;6.98;100.00;101506.19;5072264;28;20006;-62
2021/03/13 04:00:48;;;;;;;;;;;7.50;99.90;;;7.00;100.00;101501.38;5072882;28;20325;-63
2021/03/13 04:03:16;;;;;;;;;;;7.60;99.90;;;6.97;100.00;101504.56;5073072;28;19935;-63
2021/03/13 04:05:44;;;;;;;;;;;7.50;99.90;;;6.95;100.00;101506.69;5072476;28;19928;-63
2021/03/13 04:08:12;;;;;;;;;;;7.50;99.90;;;6.94;100.00;101505.06;5071946;28;20207;-62
2021/03/13 04:10:43;;;;;;;;;;;7.50;99.90;;;6.94;100.00;101502.38;5072755;28;20367;-64
2021/03/13 04:13:12;;;;;;;;;;;7.50;99.90;;;6.98;100.00;101498.94;5072765;28;19932;-62
2021/03/13 04:15:39;;;;;;;;;;;7.50;99.90;;;7.03;100.00;101507.06;5072289;28;19925;-63
2021/03/13 04:18:07;;;;;;;;;;;7.60;99.90;;;7.03;100.00;101501.69;5071790;28;19934;-63
2021/03/13 04:20:34;;;;;;;;;;;7.60;99.90;;;6.99;100.00;101505.16;5072454;28;19932;-63
2021/03/13 04:23:02;;;;;;;;;;;7.60;99.90;;;6.94;100.00;101507.75;5072811;28;19935;-63
2021/03/13 04:25:31;;;;;;;;;;;7.50;99.90;;;6.98;100.00;101515.09;5073118;28;19970;-63
2021/03/13 04:27:59;;;;;;;;;;;7.50;99.90;;;7.07;100.00;101508.22;5072177;28;19924;-63
2021/03/13 04:30:27;;;;;;;;;;;7.60;99.90;;;7.13;100.00;101509.91;5072793;28;19924;-63
2021/03/13 04:32:57;;;;;;;;;;;7.70;99.90;;;7.16;100.00;101519.34;5073417;28;19931;-63
2021/03/13 04:35:25;;;;;;;;;;;7.70;99.90;;;7.17;100.00;101518.28;5072575;28;19924;-63
2021/03/13 04:37:53;;;;;;;;;;;7.70;99.90;;;7.18;100.00;101514.50;5071563;28;19978;-63
2021/03/13 04:40:22;;;;;;;;;;;7.70;99.90;;;7.21;100.00;101516.69;5072290;28;19928;-63
2021/03/13 04:42:49;;;;;;;;;;;7.80;99.90;;;7.34;100.00;101515.50;5072661;28;19959;-63
2021/03/13 04:45:18;;;;;;;;;;;7.80;99.90;;;7.43;100.00;101509.44;5072533;28;20520;-63
2021/03/13 04:47:47;;;;;;;;;;;8.00;99.90;;;7.50;100.00;101510.06;5071588;28;19932;-63
2021/03/13 04:50:16;;;;;;;;;;;8.00;99.90;;;7.46;100.00;101510.81;5073120;28;19929;-63
2021/03/13 04:52:43;;;;;;;;;;;8.00;99.90;;;7.31;100.00;101511.47;5072971;28;19925;-63
2021/03/13 04:55:11;;;;;;;;;;;7.90;99.90;;;7.24;100.00;101515.38;5072680;28;19925;-63
2021/03/13 04:57:39;;;;;;;;;;;7.80;99.90;;;7.19;100.00;101510.78;5071707;28;19932;-63
2021/03/13 05:00:09;;;;;;;;;;;7.70;99.90;;;7.23;100.00;101509.22;5071885;28;19932;-63
2021/03/13 05:02:37;;;;;;;;;;;7.70;99.90;;;7.35;100.00;101503.69;5072431;28;19979;-63
2021/03/13 05:05:05;;;;;;;;;;;7.80;99.90;;;7.43;100.00;101504.06;5072232;28;19924;-63
2021/03/13 05:07:33;;;;;;;;;;;7.90;99.90;;;7.45;100.00;101503.78;5073954;28;19978;-63
2021/03/13 05:10:00;;;;;;;;;;;8.00;99.90;;;7.44;100.00;101507.56;5076272;28;19925;-63
2021/03/13 05:12:27;;;;;;;;;;;8.00;99.90;;;7.46;100.00;101517.00;5076596;28;19931;-63
2021/03/13 05:14:54;;;;;;;;;;;8.00;99.90;;;7.49;100.00;101502.22;5076048;28;19924;-63
2021/03/13 05:17:22;;;;;;;;;;;8.00;99.90;;;7.49;100.00;101508.44;5075664;28;19978;-63
2021/03/13 05:19:50;;;;;;;;;;;8.10;99.90;;;7.55;100.00;101512.81;5075994;28;19929;-63
2021/03/13 05:22:18;;;;;;;;;;;8.10;99.90;;;7.56;100.00;101517.13;5076347;28;20328;-63
2021/03/13 05:24:45;;;;;;;;;;;8.10;99.90;;;7.57;100.00;101518.75;5075768;28;19931;-63
2021/03/13 05:27:12;;;;;;;;;;;8.10;99.90;;;7.62;100.00;101516.13;5075257;28;19929;-63
2021/03/13 05:29:39;;;;;;;;;;;8.20;99.90;;;7.65;100.00;101521.00;5075486;28;19924;-63
2021/03/13 05:32:07;;;;;;;;;;;8.20;99.90;;;7.67;100.00;101520.72;5075726;28;19925;-63
2021/03/13 05:34:35;;;;;;;;;;;8.20;99.90;;;7.68;100.00;101527.75;5075913;28;19950;-63
2021/03/13 05:37:03;;;;;;;;;;;8.20;99.90;;;7.67;100.00;101523.44;5075368;28;19924;-63
2021/03/13 05:39:30;;;;;;;;;;;8.20;99.90;;;7.70;100.00;101531.00;5075201;28;19999;-63
2021/03/13 05:41:59;;;;;;;;;;;8.30;99.90;;;7.74;100.00;101525.91;5075534;28;19924;-63
2021/03/13 05:44:26;;;;;;;;;;;8.30;99.90;;;7.76;100.00;101527.28;5075476;28;19928;-63
2021/03/13 05:46:54;;;;;;;;;;;8.30;99.90;;;7.77;100.00;101520.03;5074692;28;19925;-63
2021/03/13 05:49:21;;;;;;;;;;;8.30;99.90;;;7.71;100.00;101532.63;5075504;28;20271;-63
2021/03/13 05:51:48;;;;;;;;;;;8.30;99.90;;;7.67;100.00;101528.81;5075603;28;19966;-63
2021/03/13 05:54:20;;;;;;;;;;;8.30;99.90;;;7.67;100.00;101532.31;5075061;28;19936;-63
2021/03/13 05:56:47;;;;;;;;;;;8.30;99.90;;;7.67;100.00;101532.31;5074795;28;19925;-63
2021/03/13 05:59:14;;;;;;;;;;;8.20;99.90;;;7.66;100.00;101546.84;5074221;28;19929;-63
2021/03/13 06:01:42;;;;;;;;;;;8.20;99.90;;;7.64;100.00;101557.03;5074943;28;19947;-63
2021/03/13 06:04:09;;;;;;;;;;;8.20;99.90;;;7.63;100.00;101547.34;5074957;28;19924;-63
2021/03/13 06:06:38;;;;;;;;;;;8.20;99.90;;;7.59;100.00;101553.50;5074813;28;19944;-63
2021/03/13 06:09:07;;;;;;;;;;;8.20;99.90;;;7.57;100.00;101561.81;5074412;28;19924;-63
2021/03/13 06:11:36;;;;;;;;;;;8.20;99.90;;;7.55;100.00;101558.56;5075132;28;19924;-63
2021/03/13 06:14:03;;;;;;;;;;;8.10;99.90;;;7.57;100.00;101567.19;5075192;28;19924;-63
2021/03/13 06:16:32;;;;;;;;;;;8.20;99.90;;;7.58;100.00;101565.31;5075475;28;20278;-63
2021/03/13 06:19:00;;;;;;;;;;;8.20;99.90;;;7.62;100.00;101567.25;5073310;28;20365;-63
2021/03/13 06:21:29;;;;;;;;;;;8.20;99.90;;;7.65;100.00;101564.06;5074864;28;19925;-63
2021/03/13 06:23:58;;;;;;;;;;;8.20;99.90;;;7.67;100.00;101569.19;5074905;28;19932;-63
2021/03/13 06:26:26;;;;;;;;;;;8.20;99.90;;;7.66;100.00;101565.69;5074784;28;20405;-63
2021/03/13 06:28:56;;;;;;;;;;;8.20;99.90;;;7.68;100.00;101565.44;5073639;28;19947;-63
2021/03/13 06:31:27;;;;;;;;;;;8.20;99.90;;;7.64;100.00;101573.19;5074732;28;20046;-63
2021/03/13 06:33:55;;;;;;;;;;;8.20;99.90;;;7.51;100.00;101580.81;5074833;28;20270;-63
2021/03/13 06:36:26;;;;;;;;;;;8.10;99.90;;;7.46;100.00;101578.09;5074971;28;19924;-63
2021/03/13 06:38:55;;;;;;;;;;;8.00;99.90;;;7.42;100.00;101566.19;5074008;28;20036;-63
2021/03/13 06:41:23;;;;;;;;;;;8.00;99.90;;;7.35;100.00;101574.47;5074417;28;19924;-64
2021/03/13 06:43:51;;;;;;;;;;;8.00;99.90;;;7.36;100.00;101577.94;5074679;28;20402;-63
2021/03/13 06:46:21;;;;;;;;;;;7.90;99.90;;;7.34;100.00;101580.09;5074547;28;19925;-63
2021/03/13 06:48:51;;;;;;;;;;;7.90;99.90;;;7.30;100.00;101582.44;5073320;28;19925;-63
2021/03/13 06:51:23;;;;;;;;;;;7.90;99.90;;;7.32;100.00;101585.72;5074317;28;20405;-63
2021/03/13 06:54:08;;;;;;;;;;;7.90;99.90;;;7.31;100.00;101584.09;5074711;28;20423;-63
2021/03/13 06:56:37;;;;;;;;;;;7.90;99.90;;;7.35;100.00;101581.72;5074583;28;19947;-63
2021/03/13 06:59:19;;;;;;;;;;;7.90;99.90;;;7.37;100.00;101587.66;5073780;28;19924;-63
2021/03/13 07:01:47;;;;;;;;;;;7.90;99.90;;;7.35;100.00;101593.31;5074437;28;19982;-63
2021/03/13 07:04:29;;;;;;;;;;;7.90;99.90;;;7.42;100.00;101598.47;5074178;28;20271;-63
2021/03/13 07:06:57;;;;;;;;;;;8.00;99.90;;;7.53;100.00;101589.47;5074025;28;20405;-63
2021/03/13 07:09:42;;;;;;;;;;;8.10;99.90;;;7.60;100.00;101596.28;5073444;28;19924;-64
2021/03/13 07:12:25;;;;;;;;;;;8.10;99.90;;;7.65;100.00;101593.69;5074333;28;19925;-63
2021/03/13 07:14:53;;;;;;;;;;;8.20;99.90;;;7.85;100.00;101593.06;5074513;28;19928;-63
2021/03/13 07:17:23;;;;;;;;;;;8.70;99.90;;;8.76;99.60;101592.06;5073507;28;20054;-63
2021/03/13 07:19:50;;;;;;;;;;;9.80;99.90;;;10.20;90.87;101588.66;5073763;28;19956;-63
2021/03/13 07:22:19;;;;;;;;;;;10.70;99.90;;;11.15;83.85;101588.88;5074210;28;19929;-63
2021/03/13 07:24:46;;;;;;;;;;;10.90;99.90;;;11.96;78.40;101589.38;5073771;28;19924;-63
2021/03/13 07:27:16;;;;;;;;;;;11.80;99.90;;;13.00;74.04;101586.09;5073075;28;19925;-63
2021/03/13 07:29:45;;;;;;;;;;;12.60;99.90;;;14.19;67.74;101581.31;5073057;28;19924;-63
2021/03/13 07:32:15;;;;;;;;;;;13.60;99.90;;;15.03;63.11;101578.59;5073256;28;19948;-63
2021/03/13 07:34:44;;;;;;;;;;;14.80;99.90;;;15.26;61.73;101583.84;5073412;28;20021;-63
2021/03/13 07:37:17;;;;;;;;;;;14.90;99.90;;;14.93;61.79;101590.47;5073714;28;19929;-63
2021/03/13 07:39:47;;;;;;;;;;;15.20;99.90;;;13.71;65.99;101588.00;5072943;28;19969;-63
2021/03/13 07:42:16;;;;;;;;;;;14.60;99.90;;;12.68;70.44;101602.13;5073727;28;19924;-63
2021/03/13 07:44:44;;;;;;;;;;;14.50;99.90;;;12.10;73.80;101603.13;5073647;28;19954;-63
2021/03/13 07:47:13;;;;;;;;;;;13.20;99.90;;;11.74;76.57;101607.91;5072799;28;20502;-63
2021/03/13 07:49:40;;;;;;;;;;;12.90;99.90;;;11.73;77.46;101615.25;5072652;28;19924;-63
2021/03/13 07:52:11;;;;;;;;;;;12.60;99.90;;;11.77;77.95;101610.88;5073100;28;20023;-63
2021/03/13 07:54:40;;;;;;;;;;;12.50;99.90;;;11.87;77.30;101616.25;5073385;28;19932;-63
2021/03/13 07:57:08;;;;;;;;;;;12.40;99.90;;;12.14;75.77;101617.72;5073080;28;19994;-63
2021/03/13 07:59:43;;;;;;;;;;;12.40;99.90;;;12.25;76.03;101625.50;5072213;28;19970;-63
2021/03/13 08:02:36;;;;;;;;;;;12.40;99.90;;;12.28;75.20;101624.94;5072977;28;19932;-63
2021/03/13 08:05:04;;;;;;;;;;;12.50;99.90;;;12.29;76.21;101633.91;5073309;28;19929;-63
2021/03/13 08:07:59;;;;;;;;;;;12.50;99.90;;;12.30;75.92;101633.63;5072665;28;19925;-65
2021/03/13 08:10:47;;;;;;;;;;;12.50;99.90;;;12.42;75.57;101638.72;5073001;28;19930;-63
2021/03/13 08:13:33;;;;;;;;;;;12.60;99.90;;;12.50;76.24;101638.91;5074036;28;19924;-63
2021/03/13 08:16:03;;;;;;;;;;;12.70;99.90;;;12.51;75.45;101640.53;5073542;28;20019;-63
2021/03/13 08:18:41;;;;;;;;;;;12.70;99.90;;;12.62;75.00;101641.25;5072626;28;20027;-63
2021/03/13 08:21:39;;;;;;;;;;;12.80;99.90;;;12.77;74.49;101643.84;5073641;28;20281;-63
2021/03/13 08:24:08;;;;;;;;;;;12.90;99.90;;;12.91;74.91;101646.72;5073020;28;19929;-64
2021/03/13 08:27:09;;;;;;;;;;;13.00;99.90;;;12.92;73.90;101646.44;5073161;28;19925;-63
2021/03/13 08:29:47;;;;;;;;;;;13.10;99.90;;;13.01;74.98;101646.66;5073371;28;20420;-63
2021/03/13 08:32:15;;;;;;;;;;;13.20;99.90;;;13.23;72.90;101646.16;5073502;28;19925;-63
2021/03/13 08:34:46;;;;;;;;;;;13.30;99.90;;;13.31;72.59;101659.16;5073492;28;19925;-63
2021/03/13 08:37:22;;;;;;;;;;;13.40;99.90;;;13.47;72.84;101653.25;5073401;28;19978;-63
2021/03/13 08:39:50;;;;;;;;;;;13.50;99.90;;;13.55;72.27;101652.63;5073163;28;19967;-63
2021/03/13 08:42:31;;;;;;;;;;;13.60;99.90;;;13.60;70.54;101651.75;5075490;28;19924;-63
2021/03/13 08:45:20;;;;;;;;;;;13.70;99.90;;;13.67;69.58;101654.94;5077982;28;19925;-63
2021/03/13 08:47:52;;;;;;;;;;;13.70;99.90;;;13.64;70.67;101663.66;5070922;28;20346;-63
2021/03/13 08:50:54;;;;;;;;;;;13.80;99.90;;;13.73;69.97;101656.50;5077019;28;19924;-63
2021/03/13 08:53:39;;;;;;;;;;;13.80;99.90;;;13.93;71.32;101656.22;5077094;28;20023;-63
2021/03/13 08:56:38;;;;;;;;;;;14.00;99.90;;;14.05;69.83;101664.78;5076712;28;19924;-63
2021/03/13 08:59:14;;;;;;;;;;;14.10;99.90;;;14.00;68.81;101670.28;5076739;28;19963;-63
2021/03/13 09:01:41;;;;;;;;;;;14.10;99.90;;;14.08;68.64;101663.38;5076756;28;20369;-63
2021/03/13 09:04:09;;;;;;;;;;;14.20;99.90;;;14.15;68.97;101677.44;5076385;28;19928;-63
2021/03/13 09:06:41;;;;;;;;;;;14.30;99.90;;;14.14;68.06;101678.53;5076922;28;19936;-63
2021/03/13 09:09:10;;;;;;;;;;;14.30;99.90;;;14.28;68.31;101676.72;5076282;28;19935;-63
2021/03/13 09:11:40;;;;;;;;;;;14.40;99.90;;;14.30;67.83;101681.84;5077464;28;19924;-63
2021/03/13 09:14:08;;;;;;;;;;;14.50;99.90;;;14.26;67.12;101686.28;5076988;28;19924;-63
2021/03/13 09:16:37;;;;;;;;;;;14.50;99.90;;;14.46;67.00;101686.00;5076735;28;19931;-63
2021/03/13 09:19:06;;;;;;;;;;;14.60;99.90;;;14.54;66.09;101688.06;5075911;28;19924;-63
2021/03/13 09:21:45;;;;;;;;;;;14.70;99.90;;;14.60;66.78;101697.75;5076426;28;19951;-63
2021/03/13 09:24:15;;;;;;;;;;;;;;;14.65;66.08;101694.97;5076458;28;19932;-63
2021/03/13 09:26:47;;;;;;;;;;;14.90;99.90;;;14.72;64.09;101698.13;5076812;28;19994;-63
2021/03/13 09:29:15;;;;;;;;;;;14.90;99.90;;;14.80;65.17;101707.53;5076260;28;19946;-63
2021/03/13 09:31:42;;;;;;;;;;;15.10;99.90;;;14.94;65.61;101702.94;5076228;28;19932;-64
2021/03/13 09:34:18;;;;;;;;;;;15.20;99.90;;;14.98;64.03;101706.72;5076677;28;19966;-64
2021/03/13 09:36:46;;;;;;;;;;;15.30;99.90;;;14.97;62.79;101697.72;5076510;28;19924;-63
2021/03/13 09:39:21;;;;;;;;;;;15.30;99.90;;;14.89;61.99;101708.50;5076316;28;20439;-63
2021/03/13 09:42:11;;;;;;;;;;;15.20;99.90;;;14.91;61.34;101701.63;5076397;28;19949;-63
2021/03/13 09:44:40;;;;;;;;;;;15.20;99.90;;;15.01;62.54;101701.47;5077383;28;19924;-65
2021/03/13 09:47:19;;;;;;;;;;;15.30;99.90;;;15.19;62.41;101707.97;5076805;28;19924;-64
2021/03/13 09:49:47;;;;;;;;;;;15.40;99.90;;;15.14;60.18;101705.31;5073409;28;19925;-64
2021/03/13 09:52:15;;;;;;;;;;;15.40;99.90;;;15.00;58.63;101708.03;5075987;28;19924;-64
2021/03/13 09:54:43;;;;;;;;;;;15.40;99.90;;;15.01;59.77;101709.66;5076446;28;20078;-64
2021/03/13 09:57:13;;;;;;;;;;;15.30;99.90;;;15.13;59.27;101696.38;5075948;28;19928;-64
2021/03/13 09:59:40;;;;;;;;;;;15.40;99.90;;;15.17;60.11;101697.38;5075121;28;19928;-64
2021/03/13 10:02:08;;;;;;;;;;;15.50;99.90;;;15.29;59.11;101694.97;5076312;28;19924;-64
2021/03/13 10:04:36;;;;;;;;;;;15.50;99.90;;;15.32;60.10;101699.81;5075868;28;19932;-64
2021/03/13 10:07:04;;;;;;;;;;;15.60;99.90;;;15.41;57.77;101697.19;5075390;28;19931;-64
2021/03/13 10:09:31;;;;;;;;;;;15.70;99.90;;;15.40;59.86;101694.78;5075016;28;19925;-64
2021/03/13 10:12:04;;;;;;;;;;;15.70;99.90;;;15.48;59.13;101696.84;5075065;28;20070;-64
2021/03/13 10:14:40;;;;;;;;;;;15.80;99.90;;;15.56;57.56;101693.44;5075408;28;19925;-64
2021/03/13 10:17:07;;;;;;;;;;;15.80;99.90;;;15.68;58.53;101696.47;5074983;28;20026;-65
2021/03/13 10:19:39;;;;;;;;;;;15.90;99.90;;;15.81;58.18;101690.19;5074137;28;19925;-65
2021/03/13 10:22:08;;;;;;;;;;;16.00;99.90;;;15.81;55.83;101687.47;5074752;28;20384;-65
2021/03/13 10:24:49;;;;;;;;;;;16.10;99.90;;;15.82;57.49;101697.28;5075139;28;20323;-65
2021/03/13 10:27:27;;;;;;;;;;;16.20;99.90;;;15.83;58.44;101690.72;5074949;28;19928;-63
2021/03/13 10:30:01;;;;;;;;;;;16.10;99.90;;;15.83;56.55;101690.72;5074524;28;19924;-63
2021/03/13 10:32:32;;;;;;;;;;;16.20;99.90;;;15.87;55.79;101699.88;5075651;28;19971;-63
2021/03/13 10:35:26;;;;;;;;;;;16.30;99.90;;;15.85;55.85;101693.94;5075904;28;19924;-62
2021/03/13 10:37:56;;;;;;;;;;;16.30;99.90;;;15.80;57.45;101692.13;5065245;28;19925;-65
2021/03/13 10:40:35;;;;;;;;;;;16.20;99.90;;;15.97;56.94;101691.50;5075126;28;19935;-63
2021/03/13 10:43:22;;;;;;;;;;;16.30;99.90;;;16.09;56.62;101689.06;5075104;28;19982;-63
2021/03/13 10:46:09;;;;;;;;;;;16.40;99.90;;;16.14;56.82;101686.22;5075109;28;19963;-65
2021/03/13 10:48:39;;;;;;;;;;;16.40;99.90;;;16.03;53.46;101679.38;5074147;28;19924;-63
2021/03/13 10:51:06;;;;;;;;;;;16.50;99.90;;;16.17;57.58;101677.44;5074449;28;19924;-63
2021/03/13 10:53:35;;;;;;;;;;;16.50;99.90;;;16.24;53.27;101683.28;5074695;28;19986;-64
2021/03/13 10:56:06;;;;;;;;;;;16.70;99.90;;;16.43;55.21;101674.94;5074772;28;19924;-63
2021/03/13 10:58:34;;;;;;;;;;;16.70;99.90;;;16.38;53.86;101678.59;5073830;28;20310;-64
2021/03/13 11:01:04;;;;;;;;;;;16.70;99.90;;;16.40;53.77;101678.28;5074029;28;19929;-64
2021/03/13 11:03:32;;;;;;;;;;;16.70;99.90;;;16.40;54.94;101670.91;5074539;28;19924;-64
2021/03/13 11:05:59;;;;;;;;;;;16.80;99.90;;;16.63;52.88;101674.50;5073888;28;19925;-64
2021/03/13 11:08:28;;;;;;;;;;;17.00;99.90;;;16.70;51.56;101671.34;5073395;28;19924;-65
2021/03/13 11:10:56;;;;;;;;;;;17.10;99.90;;;16.67;51.69;101669.22;5073517;28;20073;-64
2021/03/13 11:13:24;;;;;;;;;;;17.00;99.90;;;16.60;51.35;101668.84;5074276;28;19990;-65
2021/03/13 11:15:53;;;;;;;;;;;17.00;99.90;;;16.66;52.57;101668.41;5074158;28;19928;-64
2021/03/13 11:18:21;;;;;;;;;;;17.00;99.90;;;16.74;50.63;101666.88;5073230;28;20344;-64
2021/03/13 11:20:49;;;;;;;;;;;17.10;99.90;;;16.86;51.52;101672.59;5074160;28;19932;-64
2021/03/13 11:23:17;;;;;;;;;;;17.20;99.90;;;16.86;51.12;101667.13;5073985;28;19928;-64
2021/03/13 11:25:45;;;;;;;;;;;17.20;99.90;;;16.67;49.46;101670.03;5074374;28;20006;-64
2021/03/13 11:28:12;;;;;;;;;;;17.10;99.90;;;16.58;53.44;101669.16;5073160;28;19928;-63
2021/03/13 11:30:40;;;;;;;;;;;17.00;99.90;;;16.72;51.45;101661.72;5073786;28;19939;-63